createdAt,value
2018-03-18T00:00:52.864Z,86.67
2018-03-18T00:01:52.843Z,87.14
2018-03-18T00:02:52.826Z,87.43
2018-03-18T00:03:52.806Z,87.14
2018-03-18T00:04:52.784Z,87.24
2018-03-18T00:05:52.765Z,87.43
2018-03-18T00:06:52.785Z,87.80
2018-03-18T00:07:52.724Z,87.80
2018-03-18T00:08:52.705Z,87.52
2018-03-18T00:09:52.686Z,87.33
2018-03-18T00:10:52.666Z,87.62
2018-03-18T00:11:52.646Z,87.33
2018-03-18T00:12:52.626Z,87.80
2018-03-18T00:13:52.607Z,87.99
2018-03-18T00:14:52.587Z,87.52
2018-03-18T00:15:52.567Z,87.43
2018-03-18T00:16:52.547Z,87.33
2018-03-18T00:17:52.528Z,87.62
2018-03-18T00:18:52.508Z,87.14
2018-03-18T00:19:52.488Z,86.95
2018-03-18T00:20:52.486Z,87.14
2018-03-18T00:21:52.451Z,87.33
2018-03-18T00:22:52.480Z,87.33
2018-03-18T00:23:52.413Z,87.62
2018-03-18T00:24:52.390Z,87.80
2018-03-18T00:25:52.420Z,87.33
2018-03-18T00:26:52.351Z,87.62
2018-03-18T00:27:52.331Z,87.80
2018-03-18T00:28:52.346Z,87.24
2018-03-18T00:29:52.292Z,87.52
2018-03-18T00:30:52.272Z,87.24
2018-03-18T00:31:52.269Z,87.14
2018-03-18T00:32:52.235Z,87.33
2018-03-18T00:33:52.219Z,87.99
2018-03-18T00:34:52.197Z,86.95
2018-03-18T00:35:52.191Z,86.86
2018-03-18T00:36:52.153Z,86.57
2018-03-18T00:37:52.189Z,86.67
2018-03-18T00:38:52.115Z,86.38
2018-03-18T00:39:52.094Z,86.38
2018-03-18T00:40:52.113Z,87.14
2018-03-18T00:41:52.055Z,87.24
2018-03-18T00:42:52.036Z,87.52
2018-03-18T00:43:52.040Z,87.14
2018-03-18T00:44:51.996Z,87.80
2018-03-18T00:45:51.976Z,86.95
2018-03-18T00:46:51.962Z,86.67
2018-03-18T00:47:51.941Z,87.14
2018-03-18T00:48:51.917Z,86.86
2018-03-18T00:49:51.898Z,86.48
2018-03-18T00:50:51.879Z,87.14
2018-03-18T00:51:51.858Z,87.33
2018-03-18T00:52:51.838Z,86.95
2018-03-18T00:53:51.819Z,87.14
2018-03-18T00:54:51.800Z,86.10
2018-03-18T00:55:51.784Z,86.57
2018-03-18T00:56:51.760Z,86.29
2018-03-18T00:57:51.741Z,85.82
2018-03-18T00:58:51.722Z,85.82
2018-03-18T00:59:51.712Z,85.35
2018-03-18T01:00:51.686Z,85.82
2018-03-18T01:01:51.685Z,86.19
2018-03-18T01:02:51.644Z,85.16
2018-03-18T01:03:51.622Z,85.82
2018-03-18T01:04:51.614Z,85.44
2018-03-18T01:05:51.584Z,84.97
2018-03-18T01:06:51.564Z,84.97
2018-03-18T01:07:51.549Z,85.53
2018-03-18T01:08:51.524Z,85.35
2018-03-18T01:09:51.505Z,85.44
2018-03-18T01:10:51.485Z,85.06
2018-03-18T01:11:51.464Z,85.82
2018-03-18T01:12:51.445Z,86.01
2018-03-18T01:13:51.435Z,85.44
2018-03-18T01:14:51.418Z,85.25
2018-03-18T01:15:51.388Z,84.88
2018-03-18T01:16:51.578Z,85.16
2018-03-18T01:17:51.346Z,85.06
2018-03-18T01:18:51.326Z,85.16
2018-03-18T01:19:51.306Z,85.25
2018-03-18T01:20:51.287Z,85.06
2018-03-18T01:21:51.267Z,85.35
2018-03-18T01:22:51.249Z,85.35
2018-03-18T01:23:51.237Z,84.97
2018-03-18T01:24:51.207Z,85.16
2018-03-18T01:25:51.188Z,85.82
2018-03-18T01:26:51.178Z,85.72
2018-03-18T01:27:51.150Z,85.25
2018-03-18T01:28:51.128Z,85.63
2018-03-18T01:29:51.120Z,85.35
2018-03-18T01:30:51.089Z,85.35
2018-03-18T01:31:51.280Z,85.06
2018-03-18T01:32:51.049Z,84.78
2018-03-18T01:33:51.029Z,85.63
2018-03-18T01:34:51.052Z,85.44
2018-03-18T01:35:50.991Z,86.01
2018-03-18T01:36:50.970Z,85.72
2018-03-18T01:37:50.978Z,86.48
2018-03-18T01:38:50.931Z,86.76
2018-03-18T01:39:50.911Z,85.82
2018-03-18T01:40:50.902Z,85.16
2018-03-18T01:41:50.885Z,84.69
2018-03-18T01:42:50.854Z,84.88
2018-03-18T01:43:50.858Z,84.78
2018-03-18T01:44:50.814Z,85.06
2018-03-18T01:45:50.793Z,84.50
2018-03-18T01:46:50.816Z,85.06
2018-03-18T01:47:50.760Z,85.25
2018-03-18T01:48:50.736Z,84.78
2018-03-18T01:49:50.742Z,84.97
2018-03-18T01:50:50.695Z,84.69
2018-03-18T01:51:50.675Z,84.59
2018-03-18T01:52:50.671Z,85.06
2018-03-18T01:53:50.636Z,84.59
2018-03-18T01:54:50.617Z,83.93
2018-03-18T01:55:50.598Z,84.78
2018-03-18T01:56:50.580Z,84.97
2018-03-18T01:57:50.557Z,84.50
2018-03-18T01:58:50.538Z,84.50
2018-03-18T01:59:50.517Z,85.25
2018-03-18T02:00:50.499Z,84.59
2018-03-18T02:01:50.479Z,85.16
2018-03-18T02:02:50.460Z,84.41
2018-03-18T02:03:50.440Z,85.25
2018-03-18T02:04:50.421Z,85.53
2018-03-18T02:05:50.401Z,85.82
2018-03-18T02:06:50.385Z,85.53
2018-03-18T02:07:50.385Z,85.16
2018-03-18T02:08:50.351Z,84.59
2018-03-18T02:09:50.327Z,84.22
2018-03-18T02:10:50.320Z,84.03
2018-03-18T02:11:50.283Z,85.16
2018-03-18T02:12:50.268Z,84.97
2018-03-18T02:13:50.245Z,84.78
2018-03-18T02:14:50.226Z,85.06
2018-03-18T02:15:50.205Z,85.06
2018-03-18T02:16:50.186Z,84.88
2018-03-18T02:17:50.167Z,84.97
2018-03-18T02:18:50.149Z,84.50
2018-03-18T02:19:50.128Z,85.44
2018-03-18T02:20:50.111Z,85.16
2018-03-18T02:21:50.110Z,85.06
2018-03-18T02:22:50.070Z,84.22
2018-03-18T02:23:50.058Z,84.97
2018-03-18T02:24:50.038Z,84.59
2018-03-18T02:25:50.011Z,85.25
2018-03-18T02:26:49.992Z,84.69
2018-03-18T02:27:49.976Z,84.69
2018-03-18T02:28:49.954Z,84.88
2018-03-18T02:29:49.934Z,84.97
2018-03-18T02:30:49.915Z,84.97
2018-03-18T02:31:49.896Z,85.06
2018-03-18T02:32:49.875Z,84.59
2018-03-18T02:33:49.856Z,85.16
2018-03-18T02:34:49.838Z,84.41
2018-03-18T02:35:49.820Z,85.53
2018-03-18T02:36:49.798Z,84.88
2018-03-18T02:37:49.778Z,84.78
2018-03-18T02:38:49.761Z,84.50
2018-03-18T02:39:49.742Z,84.97
2018-03-18T02:40:49.779Z,85.06
2018-03-18T02:41:49.701Z,85.25
2018-03-18T02:42:49.683Z,85.25
2018-03-18T02:44:23.044Z,84.69
2018-03-18T02:44:49.644Z,85.63
2018-03-18T02:45:49.638Z,85.06
2018-03-18T02:46:49.608Z,84.50
2018-03-18T02:47:49.625Z,85.44
2018-03-18T02:48:49.576Z,85.16
2018-03-18T02:49:49.546Z,85.63
2018-03-18T02:50:49.570Z,85.35
2018-03-18T02:51:49.508Z,85.82
2018-03-18T02:52:49.488Z,85.63
2018-03-18T02:53:49.673Z,85.06
2018-03-18T02:54:49.462Z,85.06
2018-03-18T02:55:49.430Z,85.82
2018-03-18T02:56:49.428Z,85.06
2018-03-18T02:57:49.403Z,85.06
2018-03-18T02:58:49.373Z,85.72
2018-03-18T02:59:49.410Z,85.82
2018-03-18T03:00:49.336Z,84.97
2018-03-18T03:01:49.315Z,84.59
2018-03-18T03:02:49.345Z,84.69
2018-03-18T03:03:49.280Z,84.50
2018-03-18T03:04:49.260Z,84.78
2018-03-18T03:05:49.269Z,84.59
2018-03-18T03:06:49.217Z,84.59
2018-03-18T03:07:49.197Z,85.06
2018-03-18T03:08:49.229Z,85.72
2018-03-18T03:09:49.161Z,85.53
2018-03-18T03:10:49.139Z,85.25
2018-03-18T03:11:49.119Z,84.97
2018-03-18T03:12:49.100Z,84.03
2018-03-18T03:13:49.085Z,84.97
2018-03-18T03:14:49.062Z,84.50
2018-03-18T03:15:49.042Z,84.88
2018-03-18T03:16:49.022Z,84.41
2018-03-18T03:17:49.003Z,85.35
2018-03-18T03:18:48.984Z,84.97
2018-03-18T03:19:48.964Z,85.25
2018-03-18T03:20:48.944Z,85.16
2018-03-18T03:21:48.925Z,85.35
2018-03-18T03:22:48.911Z,85.53
2018-03-18T03:23:48.885Z,84.59
2018-03-18T03:24:48.880Z,85.16
2018-03-18T03:25:48.848Z,84.41
2018-03-18T03:26:48.880Z,84.78
2018-03-18T03:27:48.810Z,85.16
2018-03-18T03:28:48.788Z,84.59
2018-03-18T03:29:48.814Z,84.50
2018-03-18T03:30:48.751Z,85.16
2018-03-18T03:31:48.730Z,85.53
2018-03-18T03:32:48.743Z,85.72
2018-03-18T03:33:48.692Z,85.06
2018-03-18T03:34:48.671Z,85.35
2018-03-18T03:35:48.664Z,86.29
2018-03-18T03:36:48.653Z,86.67
2018-03-18T03:37:48.613Z,86.38
2018-03-18T03:38:48.626Z,87.14
2018-03-18T03:39:48.574Z,87.33
2018-03-18T03:40:48.555Z,86.95
2018-03-18T03:41:48.581Z,87.14
2018-03-18T03:42:48.516Z,86.76
2018-03-18T03:43:48.495Z,86.67
2018-03-18T03:44:48.503Z,86.19
2018-03-18T03:45:48.457Z,86.10
2018-03-18T03:46:48.443Z,86.38
2018-03-18T03:47:48.433Z,85.25
2018-03-18T03:48:48.399Z,85.25
2018-03-18T03:49:48.380Z,84.88
2018-03-18T03:50:48.361Z,84.97
2018-03-18T03:51:48.341Z,84.97
2018-03-18T03:52:48.321Z,84.78
2018-03-18T03:53:48.303Z,84.59
2018-03-18T03:54:48.283Z,85.72
2018-03-18T03:55:48.263Z,85.25
2018-03-18T03:56:48.243Z,85.06
2018-03-18T03:57:48.225Z,84.97
2018-03-18T03:58:48.205Z,85.53
2018-03-18T03:59:48.185Z,84.97
2018-03-18T04:00:48.177Z,84.97
2018-03-18T04:01:48.152Z,86.38
2018-03-18T04:02:48.147Z,86.01
2018-03-18T04:03:48.119Z,86.52
2018-03-18T04:04:48.089Z,86.57
2018-03-18T04:05:48.080Z,87.05
2018-03-18T04:06:48.053Z,87.24
2018-03-18T04:07:48.031Z,86.67
2018-03-18T04:08:48.012Z,86.19
2018-03-18T04:09:47.993Z,86.76
2018-03-18T04:10:47.974Z,86.57
2018-03-18T04:11:47.954Z,86.95
2018-03-18T04:12:47.945Z,86.95
2018-03-18T04:13:47.916Z,87.33
2018-03-18T04:14:47.901Z,87.24
2018-03-18T04:15:47.876Z,86.95
2018-03-18T04:16:47.870Z,86.01
2018-03-18T04:17:47.839Z,86.19
2018-03-18T04:18:47.820Z,85.82
2018-03-18T04:19:47.801Z,86.01
2018-03-18T04:20:47.780Z,85.91
2018-03-18T04:21:47.762Z,86.76
2018-03-18T04:22:47.742Z,86.01
2018-03-18T04:23:47.722Z,85.82
2018-03-18T04:24:47.703Z,85.35
2018-03-18T04:25:47.684Z,85.25
2018-03-18T04:26:47.665Z,85.06
2018-03-18T04:27:47.645Z,85.16
2018-03-18T04:28:47.629Z,84.78
2018-03-18T04:29:47.606Z,85.35
2018-03-18T04:30:47.587Z,85.35
2018-03-18T04:31:47.567Z,86.38
2018-03-18T04:32:47.549Z,86.38
2018-03-18T04:33:47.529Z,86.48
2018-03-18T04:34:47.511Z,86.48
2018-03-18T04:35:47.490Z,86.01
2018-03-18T04:36:47.471Z,85.53
2018-03-18T04:37:47.455Z,85.44
2018-03-18T04:38:47.463Z,85.91
2018-03-18T04:39:47.416Z,85.72
2018-03-18T04:40:47.404Z,84.97
2018-03-18T04:41:47.376Z,84.59
2018-03-18T04:42:47.565Z,85.16
2018-03-18T04:43:47.336Z,84.88
2018-03-18T04:44:47.317Z,85.06
2018-03-18T04:45:47.334Z,84.12
2018-03-18T04:46:47.279Z,83.93
2018-03-18T04:47:47.258Z,84.03
2018-03-18T04:48:47.262Z,84.41
2018-03-18T04:49:47.221Z,83.84
2018-03-18T04:50:47.209Z,85.06
2018-03-18T04:51:47.187Z,85.16
2018-03-18T04:52:47.171Z,85.53
2018-03-18T04:53:47.143Z,84.59
2018-03-18T04:54:47.175Z,85.16
2018-03-18T04:55:47.103Z,84.97
2018-03-18T04:56:47.085Z,84.59
2018-03-18T04:57:47.099Z,85.16
2018-03-18T04:58:47.050Z,84.97
2018-03-18T04:59:47.026Z,84.78
2018-03-18T05:00:47.029Z,84.59
2018-03-18T05:01:46.988Z,84.78
2018-03-18T05:02:46.969Z,84.69
2018-03-18T05:03:46.953Z,84.59
2018-03-18T05:04:46.929Z,84.78
2018-03-18T05:05:46.910Z,84.31
2018-03-18T05:06:46.891Z,84.22
2018-03-18T05:07:46.871Z,84.59
2018-03-18T05:08:46.855Z,84.50
2018-03-18T05:09:46.832Z,85.53
2018-03-18T05:10:46.813Z,84.22
2018-03-18T05:11:46.793Z,83.55
2018-03-18T05:12:46.783Z,83.74
2018-03-18T05:13:46.755Z,84.03
2018-03-18T05:14:46.736Z,82.99
2018-03-18T05:15:46.716Z,83.27
2018-03-18T05:16:46.730Z,84.12
2018-03-18T05:17:46.694Z,84.03
2018-03-18T05:18:46.657Z,84.69
2018-03-18T05:19:46.684Z,84.69
2018-03-18T05:20:46.619Z,85.06
2018-03-18T05:21:46.664Z,84.59
2018-03-18T05:22:46.607Z,85.35
2018-03-18T05:23:46.560Z,85.25
2018-03-18T05:24:46.773Z,84.88
2018-03-18T05:25:46.536Z,85.91
2018-03-18T05:26:46.502Z,85.53
2018-03-18T05:27:46.699Z,85.72
2018-03-18T05:28:46.466Z,85.16
2018-03-18T05:29:46.463Z,84.97
2018-03-18T05:30:46.459Z,85.06
2018-03-18T05:31:46.439Z,84.69
2018-03-18T05:32:46.386Z,84.69
2018-03-18T05:33:46.387Z,84.78
2018-03-18T05:34:46.395Z,85.16
2018-03-18T05:35:46.329Z,85.44
2018-03-18T05:36:46.323Z,85.53
2018-03-18T05:37:46.291Z,85.82
2018-03-18T05:38:46.314Z,86.19
2018-03-18T05:39:46.251Z,86.95
2018-03-18T05:40:46.292Z,86.57
2018-03-18T05:41:46.212Z,85.91
2018-03-18T05:42:46.205Z,85.82
2018-03-18T05:43:46.174Z,85.82
2018-03-18T05:44:46.159Z,86.19
2018-03-18T05:45:46.135Z,86.67
2018-03-18T05:46:46.116Z,86.67
2018-03-18T05:47:46.194Z,87.80
2018-03-18T05:48:46.076Z,87.43
2018-03-18T05:49:46.057Z,87.43
2018-03-18T05:50:46.241Z,86.86
2018-03-18T05:51:46.019Z,86.76
2018-03-18T05:52:45.999Z,87.05
2018-03-18T05:53:46.079Z,86.67
2018-03-18T05:54:45.963Z,86.29
2018-03-18T05:55:45.944Z,86.19
2018-03-18T05:56:46.124Z,86.76
2018-03-18T05:57:45.907Z,86.95
2018-03-18T05:58:45.883Z,86.57
2018-03-18T05:59:45.954Z,87.24
2018-03-18T06:00:45.843Z,86.38
2018-03-18T06:01:45.824Z,87.05
2018-03-18T06:02:45.828Z,87.14
2018-03-18T06:03:45.784Z,87.24
2018-03-18T06:04:45.767Z,87.14
2018-03-18T06:05:45.791Z,86.57
2018-03-18T06:06:45.725Z,86.19
2018-03-18T06:07:45.707Z,86.10
2018-03-18T06:08:45.698Z,85.35
2018-03-18T06:09:45.666Z,85.53
2018-03-18T06:10:45.648Z,85.63
2018-03-18T06:11:45.628Z,85.16
2018-03-18T06:12:45.607Z,85.44
2018-03-18T06:13:45.588Z,85.53
2018-03-18T06:14:45.569Z,86.29
2018-03-18T06:15:45.548Z,86.95
2018-03-18T06:16:45.587Z,87.80
2018-03-18T06:17:45.513Z,87.90
2018-03-18T06:18:45.490Z,87.80
2018-03-18T06:19:45.552Z,87.80
2018-03-18T06:20:45.450Z,88.09
2018-03-18T06:21:45.431Z,88.56
2018-03-18T06:23:45.391Z,87.99
2018-03-18T06:24:45.378Z,88.28
2018-03-18T06:25:45.399Z,88.84
2018-03-18T06:26:45.333Z,88.56
2018-03-18T06:27:45.317Z,89.22
2018-03-18T06:28:45.497Z,89.40
2018-03-18T06:29:45.276Z,89.40
2018-03-18T06:30:45.255Z,89.59
2018-03-18T06:31:45.439Z,89.69
2018-03-18T06:32:45.217Z,88.75
2018-03-18T06:33:45.194Z,89.22
2018-03-18T06:34:45.213Z,88.84
2018-03-18T06:35:45.155Z,90.26
2018-03-18T06:36:45.136Z,90.35
2018-03-18T06:37:45.129Z,90.35
2018-03-18T06:38:45.097Z,90.07
2018-03-18T06:39:45.077Z,90.54
2018-03-18T06:40:45.106Z,90.64
2018-03-18T06:41:45.042Z,90.73
2018-03-18T06:42:45.023Z,90.92
2018-03-18T06:43:45.001Z,91.77
2018-03-18T06:44:44.982Z,91.30
2018-03-18T06:45:44.965Z,90.92
2018-03-18T06:46:44.947Z,90.35
2018-03-18T06:47:44.956Z,90.92
2018-03-18T06:48:44.905Z,91.39
2018-03-18T06:49:44.886Z,91.58
2018-03-18T06:50:44.868Z,91.30
2018-03-18T06:51:44.887Z,90.35
2018-03-18T06:52:44.830Z,90.26
2018-03-18T06:53:44.812Z,90.26
2018-03-18T06:54:44.794Z,90.16
2018-03-18T06:55:44.776Z,90.16
2018-03-18T06:56:44.760Z,90.07
2018-03-18T06:58:44.720Z,89.69
2018-03-18T06:59:44.701Z,89.97
2018-03-18T07:00:44.765Z,89.97
2018-03-18T07:01:44.663Z,89.97
2018-03-18T07:02:44.647Z,89.40
2018-03-18T07:03:44.670Z,89.31
2018-03-18T07:04:44.609Z,89.69
2018-03-18T07:05:44.590Z,89.22
2018-03-18T07:06:44.606Z,89.64
2018-03-18T07:07:44.552Z,89.45
2018-03-18T07:08:44.534Z,89.36
2018-03-18T07:09:44.516Z,90.02
2018-03-18T07:10:44.499Z,89.45
2018-03-18T07:11:44.482Z,89.12
2018-03-18T07:12:44.517Z,88.56
2018-03-18T07:13:44.445Z,89.22
2018-03-18T07:14:44.426Z,89.26
2018-03-18T07:15:44.621Z,89.26
2018-03-18T07:16:44.394Z,89.17
2018-03-18T07:17:44.372Z,88.32
2018-03-18T07:18:44.434Z,87.66
2018-03-18T07:19:44.334Z,87.62
2018-03-18T07:20:44.314Z,87.71
2018-03-18T07:21:44.499Z,88.09
2018-03-18T07:22:44.280Z,88.37
2018-03-18T07:23:44.259Z,88.56
2018-03-18T07:24:44.272Z,88.56
2018-03-18T07:25:44.223Z,89.22
2018-03-18T07:26:44.213Z,88.75
2018-03-18T07:27:44.211Z,89.31
2018-03-18T07:28:44.172Z,89.59
2018-03-18T07:29:44.150Z,89.22
2018-03-18T07:30:44.129Z,89.97
2018-03-18T07:31:44.114Z,90.26
2018-03-18T07:32:44.092Z,90.92
2018-03-18T07:33:44.075Z,91.39
2018-03-18T07:34:44.055Z,91.67
2018-03-18T07:35:44.035Z,91.77
2018-03-18T07:36:44.019Z,92.14
2018-03-18T07:37:44.003Z,92.71
2018-03-18T07:38:44.030Z,91.86
2018-03-18T07:39:43.961Z,92.14
2018-03-18T07:40:43.942Z,92.80
2018-03-18T07:41:43.923Z,93.09
2018-03-18T07:42:43.905Z,93.09
2018-03-18T07:43:43.897Z,92.43
2018-03-18T07:44:43.935Z,92.90
2018-03-18T07:45:43.852Z,92.71
2018-03-18T07:46:43.831Z,92.43
2018-03-18T07:47:44.014Z,92.99
2018-03-18T07:48:43.792Z,92.90
2018-03-18T07:49:43.775Z,92.90
2018-03-18T07:51:43.737Z,92.71
2018-03-18T07:52:43.719Z,92.52
2018-03-18T07:53:43.784Z,92.99
2018-03-18T07:54:43.682Z,92.61
2018-03-18T07:55:43.666Z,92.33
2018-03-18T07:56:43.718Z,92.43
2018-03-18T07:57:43.626Z,92.14
2018-03-18T07:58:43.608Z,93.09
2018-03-18T07:59:43.649Z,93.37
2018-03-18T08:00:43.570Z,93.66
2018-03-18T08:01:43.552Z,93.37
2018-03-18T08:02:43.534Z,93.37
2018-03-18T08:03:43.518Z,93.66
2018-03-18T08:04:43.499Z,93.94
2018-03-18T08:05:43.479Z,93.66
2018-03-18T08:06:43.460Z,94.51
2018-03-18T08:07:43.442Z,94.41
2018-03-18T08:08:43.421Z,94.60
2018-03-18T08:09:43.401Z,94.32
2018-03-18T08:10:43.385Z,94.03
2018-03-18T08:11:43.366Z,93.66
2018-03-18T08:12:43.346Z,92.05
2018-03-18T08:13:43.328Z,90.73
2018-03-18T08:14:43.309Z,90.64
2018-03-18T08:15:43.289Z,90.35
2018-03-18T08:16:43.272Z,90.73
2018-03-18T08:17:43.325Z,91.01
2018-03-18T08:18:43.235Z,90.82
2018-03-18T08:19:43.216Z,90.16
2018-03-18T08:20:43.400Z,90.26
2018-03-18T08:21:43.179Z,89.59
2018-03-18T08:22:43.160Z,89.40
2018-03-18T08:23:43.245Z,89.03
2018-03-18T08:24:43.127Z,89.22
2018-03-18T08:25:43.105Z,89.26
2018-03-18T08:26:43.134Z,89.17
2018-03-18T08:27:43.069Z,89.17
2018-03-18T08:28:43.051Z,88.42
2018-03-18T08:29:43.047Z,88.42
2018-03-18T08:30:43.015Z,87.37
2018-03-18T08:31:42.995Z,86.99
2018-03-18T08:32:42.980Z,87.75
2018-03-18T08:33:42.959Z,88.23
2018-03-18T08:34:42.944Z,87.94
2018-03-18T08:35:42.922Z,88.23
2018-03-18T08:36:42.904Z,87.85
2018-03-18T08:37:42.887Z,87.09
2018-03-18T08:38:42.879Z,86.99
2018-03-18T08:39:42.850Z,87.09
2018-03-18T08:40:42.833Z,88.13
2018-03-18T08:41:42.817Z,86.80
2018-03-18T08:42:42.797Z,85.77
2018-03-18T08:43:42.810Z,86.52
2018-03-18T08:44:42.762Z,85.58
2018-03-18T08:45:42.746Z,85.49
2018-03-18T08:46:42.833Z,85.86
2018-03-18T08:47:42.707Z,85.49
2018-03-18T08:48:42.691Z,85.58
2018-03-18T08:49:42.717Z,84.73
2018-03-18T08:50:42.656Z,85.11
2018-03-18T08:51:42.636Z,84.73
2018-03-18T08:52:42.686Z,84.45
2018-03-18T08:53:42.602Z,84.45
2018-03-18T08:54:42.589Z,84.73
2018-03-18T08:55:42.584Z,84.64
2018-03-18T08:56:42.549Z,84.64
2018-03-18T08:57:42.532Z,84.16
2018-03-18T08:58:42.515Z,84.16
2018-03-18T08:59:42.497Z,84.26
2018-03-18T09:00:42.481Z,83.31
2018-03-18T09:01:42.463Z,83.97
2018-03-18T09:02:42.446Z,83.59
2018-03-18T09:03:42.428Z,84.45
2018-03-18T09:04:42.410Z,83.78
2018-03-18T09:05:42.394Z,84.16
2018-03-18T09:06:42.424Z,83.97
2018-03-18T09:07:42.362Z,83.69
2018-03-18T09:08:42.342Z,83.03
2018-03-18T09:09:42.541Z,83.40
2018-03-18T09:10:42.312Z,83.88
2018-03-18T09:11:42.290Z,83.50
2018-03-18T09:12:42.272Z,84.73
2018-03-18T09:13:42.305Z,84.16
2018-03-18T09:14:42.240Z,84.64
2018-03-18T09:15:42.222Z,84.45
2018-03-18T09:16:42.245Z,84.45
2018-03-18T09:17:42.212Z,84.07
2018-03-18T09:18:42.172Z,84.16
2018-03-18T09:19:42.177Z,84.54
2018-03-18T09:20:42.135Z,84.26
2018-03-18T09:21:42.119Z,83.69
2018-03-18T09:22:42.100Z,83.83
2018-03-18T09:23:42.083Z,83.40
2018-03-18T09:24:42.067Z,82.93
2018-03-18T09:25:42.050Z,82.37
2018-03-18T09:26:42.033Z,82.75
2018-03-18T09:27:42.022Z,82.93
2018-03-18T09:28:42.001Z,82.93
2018-03-18T09:29:41.989Z,83.40
2018-03-18T09:30:42.167Z,83.69
2018-03-18T09:31:41.945Z,83.78
2018-03-18T09:32:41.929Z,84.73
2018-03-18T09:33:41.979Z,85.01
2018-03-18T09:34:41.898Z,84.64
2018-03-18T09:35:41.941Z,85.01
2018-03-18T09:36:41.901Z,85.49
2018-03-18T09:37:41.843Z,86.24
2018-03-18T09:38:41.825Z,86.05
2018-03-18T09:39:42.012Z,86.71
2018-03-18T09:40:41.790Z,87.85
2018-03-18T09:41:41.773Z,87.47
2018-03-18T09:42:41.830Z,87.94
2018-03-18T09:43:41.737Z,87.66
2018-03-18T09:44:41.720Z,87.94
2018-03-18T09:45:41.702Z,87.71
2018-03-18T09:46:41.687Z,88.84
2018-03-18T09:47:41.667Z,88.89
2018-03-18T09:48:41.649Z,89.36
2018-03-18T09:49:41.632Z,89.26
2018-03-18T09:50:41.617Z,88.75
2018-03-18T09:51:41.598Z,88.65
2018-03-18T09:52:41.578Z,88.75
2018-03-18T09:53:41.561Z,89.22
2018-03-18T09:54:41.543Z,89.22
2018-03-18T09:55:41.524Z,89.12
2018-03-18T09:56:41.710Z,89.31
2018-03-18T09:57:41.547Z,89.12
2018-03-18T09:58:41.474Z,89.64
2018-03-18T09:59:41.657Z,89.45
2018-03-18T10:00:41.436Z,89.07
2018-03-18T10:01:41.419Z,89.17
2018-03-18T10:02:41.450Z,88.04
2018-03-18T10:03:41.383Z,88.32
2018-03-18T10:04:41.366Z,88.04
2018-03-18T10:05:41.392Z,88.23
2018-03-18T10:06:41.331Z,88.23
2018-03-18T10:07:41.313Z,87.33
2018-03-18T10:08:41.331Z,87.14
2018-03-18T10:09:41.280Z,87.80
2018-03-18T10:10:41.260Z,87.71
2018-03-18T10:11:41.342Z,87.43
2018-03-18T10:12:41.226Z,87.94
2018-03-18T10:13:41.206Z,88.23
2018-03-18T10:14:41.254Z,87.75
2018-03-18T10:15:41.173Z,86.80
2018-03-18T10:16:41.153Z,86.15
2018-03-18T10:17:41.180Z,86.62
2018-03-18T10:18:41.118Z,85.96
2018-03-18T10:19:41.102Z,85.49
2018-03-18T10:20:41.094Z,85.86
2018-03-18T10:21:41.064Z,85.49
2018-03-18T10:22:41.046Z,85.11
2018-03-18T10:23:41.032Z,85.20
2018-03-18T10:24:41.013Z,85.30
2018-03-18T10:25:41.002Z,85.68
2018-03-18T10:26:40.979Z,86.24
2018-03-18T10:27:40.958Z,85.68
2018-03-18T10:28:40.941Z,85.58
2018-03-18T10:29:40.924Z,85.39
2018-03-18T10:30:40.906Z,84.64
2018-03-18T10:31:40.983Z,84.45
2018-03-18T10:32:40.931Z,84.82
2018-03-18T10:33:40.854Z,85.11
2018-03-18T10:34:41.040Z,85.11
2018-03-18T10:35:40.819Z,85.20
2018-03-18T10:36:40.802Z,84.92
2018-03-18T10:37:40.872Z,84.64
2018-03-18T10:38:40.769Z,84.54
2018-03-18T10:39:40.781Z,83.97
2018-03-18T10:40:40.935Z,84.07
2018-03-18T10:41:40.718Z,83.59
2018-03-18T10:42:40.698Z,84.49
2018-03-18T10:43:40.885Z,84.49
2018-03-18T10:44:40.666Z,83.22
2018-03-18T10:45:40.658Z,83.31
2018-03-18T10:46:40.631Z,83.64
2018-03-18T10:47:40.613Z,82.88
2018-03-18T10:48:40.651Z,82.75
2018-03-18T10:49:40.580Z,81.46
2018-03-18T10:50:40.563Z,81.84
2018-03-18T10:51:40.546Z,80.99
2018-03-18T10:52:40.533Z,80.80
2018-03-18T10:53:40.517Z,80.80
2018-03-18T10:54:40.497Z,80.90
2018-03-18T10:55:40.481Z,80.24
2018-03-18T10:56:40.468Z,80.52
2018-03-18T10:57:40.539Z,80.90
2018-03-18T10:58:40.433Z,80.90
2018-03-18T10:59:40.414Z,81.09
2018-03-18T11:01:40.384Z,80.33
2018-03-18T11:02:40.370Z,79.76
2018-03-18T11:03:40.394Z,80.05
2018-03-18T11:04:40.333Z,79.86
2018-03-18T11:05:40.318Z,79.76
2018-03-18T11:06:40.340Z,79.76
2018-03-18T11:07:40.288Z,80.14
2018-03-18T11:08:40.267Z,80.33
2018-03-18T11:09:40.291Z,81.18
2018-03-18T11:10:40.235Z,80.90
2018-03-18T11:11:40.225Z,80.90
2018-03-18T11:12:40.277Z,80.71
2018-03-18T11:13:40.185Z,80.90
2018-03-18T11:14:40.169Z,79.95
2018-03-18T11:15:40.231Z,80.62
2018-03-18T11:16:40.137Z,80.62
2018-03-18T11:17:40.119Z,80.99
2018-03-18T11:18:40.206Z,80.33
2018-03-18T11:19:40.085Z,80.24
2018-03-18T11:20:40.076Z,80.71
2018-03-18T11:21:40.255Z,79.86
2018-03-18T11:22:40.037Z,79.67
2018-03-18T11:23:40.019Z,80.71
2018-03-18T11:24:40.022Z,80.14
2018-03-18T11:25:39.986Z,79.67
2018-03-18T11:26:39.977Z,80.33
2018-03-18T11:27:39.951Z,79.95
2018-03-18T11:28:39.939Z,79.76
2018-03-18T11:29:39.922Z,80.33
2018-03-18T11:30:39.904Z,80.62
2018-03-18T11:31:39.885Z,80.14
2018-03-18T11:32:39.870Z,79.95
2018-03-18T11:33:39.852Z,78.63
2018-03-18T11:34:39.836Z,78.16
2018-03-18T11:35:40.038Z,78.06
2018-03-18T11:36:39.804Z,78.16
2018-03-18T11:37:39.796Z,78.16
2018-03-18T11:38:39.883Z,77.59
2018-03-18T11:39:39.760Z,77.50
2018-03-18T11:40:39.738Z,77.02
2018-03-18T11:41:39.765Z,77.87
2018-03-18T11:42:39.706Z,78.06
2018-03-18T11:43:39.689Z,77.12
2018-03-18T11:45:39.656Z,78.63
2018-03-18T11:46:39.641Z,78.44
2018-03-18T11:47:39.670Z,78.25
2018-03-18T11:48:39.607Z,78.25
2018-03-18T11:49:39.591Z,77.31
2018-03-18T11:50:39.594Z,76.93
2018-03-18T11:51:39.558Z,77.69
2018-03-18T11:52:39.542Z,77.40
2018-03-18T11:53:39.528Z,77.40
2018-03-18T11:54:39.511Z,76.93
2018-03-18T11:55:39.495Z,76.87
2018-03-18T11:56:39.479Z,76.12
2018-03-18T11:57:39.463Z,76.40
2018-03-18T11:58:39.682Z,76.87
2018-03-18T11:59:39.431Z,76.12
2018-03-18T12:00:39.420Z,76.59
2018-03-18T12:02:39.389Z,75.36
2018-03-18T12:03:39.371Z,73.66
2018-03-18T12:04:39.401Z,73.94
2018-03-18T12:05:39.342Z,74.41
2018-03-18T12:06:39.328Z,74.69
2018-03-18T12:07:39.357Z,75.07
2018-03-18T12:08:39.300Z,74.69
2018-03-18T12:09:39.286Z,73.75
2018-03-18T12:10:39.294Z,73.47
2018-03-18T12:11:39.253Z,73.47
2018-03-18T12:12:39.289Z,74.51
2018-03-18T12:13:39.291Z,73.47
2018-03-18T12:14:39.214Z,71.95
2018-03-18T12:15:39.195Z,72.52
2018-03-18T12:16:39.266Z,72.71
2018-03-18T12:17:39.165Z,72.52
2018-03-18T12:18:39.149Z,73.85
2018-03-18T12:19:39.226Z,73.66
2018-03-18T12:20:39.119Z,73.47
2018-03-18T12:21:39.105Z,74.60
2018-03-18T12:22:39.134Z,74.41
2018-03-18T12:23:39.074Z,74.60
2018-03-18T12:24:39.057Z,75.45
2018-03-18T12:25:39.042Z,76.12
2018-03-18T12:26:39.027Z,76.02
2018-03-18T12:27:39.011Z,75.64
2018-03-18T12:28:38.995Z,75.17
2018-03-18T12:29:38.980Z,75.07
2018-03-18T12:30:38.965Z,75.45
2018-03-18T12:31:38.949Z,73.75
2018-03-18T12:32:38.933Z,74.41
2018-03-18T12:33:38.918Z,73.47
2018-03-18T12:34:38.902Z,71.86
2018-03-18T12:35:38.887Z,71.86
2018-03-18T12:36:39.074Z,72.24
2018-03-18T12:37:38.856Z,71.86
2018-03-18T12:38:38.840Z,72.52
2018-03-18T12:39:39.027Z,72.52
2018-03-18T12:40:38.808Z,71.20
2018-03-18T12:41:38.793Z,71.20
2018-03-18T12:42:38.823Z,71.86
2018-03-18T12:43:38.764Z,71.67
2018-03-18T12:44:38.761Z,72.43
2018-03-18T12:45:38.754Z,72.05
2018-03-18T12:46:38.716Z,72.52
2018-03-18T12:47:38.702Z,71.14
2018-03-18T12:48:38.686Z,71.39
2018-03-18T12:49:38.668Z,71.04
2018-03-18T12:50:38.653Z,70.29
2018-03-18T12:51:38.637Z,70.39
2018-03-18T12:52:38.622Z,70.10
2018-03-18T12:53:38.607Z,69.72
2018-03-18T12:54:38.647Z,70.86
2018-03-18T12:55:38.576Z,70.76
2018-03-18T12:56:38.561Z,70.82
2018-03-18T12:57:38.549Z,70.95
2018-03-18T12:58:38.534Z,69.87